Jump to content

  •  

AMERICAN AIRLINES FLIGHT AA2570 FLOWN ON 12-05-2017 BY CAPTAIN JIM BOERMAN

Pilot StatsCaptain Jim Boerman (LDP136) • 4,686.4 total hours • 1,423 total flights [View Logbook]
FLIGHT DETAILS
StatusReceived and approved on 2017-12-05 at 16:12:30
Origin AirportDep. L. E. Magalhaes Intl (SBSV) • Salvador, Brazil (64 feet MSL)
Filed Flight PlanSBSV KOGBU UZ41 OTONI UG449 POS UL337 BODLO A756 ZIN A315 SWIMM BR53V VKZ KMIA
Destination AirportMiami Intl (KMIA) • Miami, Florida, United States (8 feet MSL)
Alternate AirportSouthwest Florida Intl (KRSW) • Ft Myers, Florida, United States (30 feet MSL)
AirlineAmerican Airlines
AircraftBoeing 777-200LR (77L / B777-200LR)
FS Aircraft UsedPMDG 777-223LR American Airlines (Fictional)
Cruising AltitudeFL340
Distance Flown3,378 nautical miles
Passengers Onboard145 passengers (48.17% full)
DEPARTURE DETAILS
Time Out11:40:03
Taxi Data523,735 lbs total with 123,411 lbs of fuel onboard
Takeoff Data11:49:32 (9 minutes after leaving gate/ramp) • 522,453 lbs total • 8° pitch at 172 knots
Departure METARSBSV 051300Z 07015KT 9999 SCT023 30/23 Q1013
ARRIVAL DETAILS
Landing Data16:18:28 • 421,431 lbs total • 1° pitch doing 134 knots at a rate of -435.99 feet/minute with 19,876 lbs of fuel onboard
Time In16:34:52 (16 minutes after landing)
Ramp Weight420,200 lbs total
Total Fuel Used103,535 lbs
Total Block Time07:54:45 (7.9 hours) while 26 minutes were spent on the ground
Arrival METARKMIA 052053Z 10011KT 10SM SCT034 SCT100 27/19 A3012 RMK AO2 SLP198 T02720194 56008 $
MISCELLANEOUS DETAILS
LiveDISPATCH Version4.8.3.1
FS Version
FSUIPC Version5.12
OS VersionWindows 7 32-bit
Screen Resolution1920 x 1080
Pilot's CommentsNo Comments Reported
FLIGHT MAP